createdAt,value
2022-10-13T00:01:42.362Z,14.10
2022-10-13T00:04:08.706Z,14.30
2022-10-13T00:06:35.097Z,14.14
2022-10-13T00:09:01.483Z,13.95
2022-10-13T00:11:29.756Z,13.65
2022-10-13T00:13:59.141Z,14.05
2022-10-13T00:16:25.924Z,13.49
2022-10-13T00:18:52.512Z,13.97
2022-10-13T00:21:22.711Z,13.76
2022-10-13T00:23:50.081Z,14.05
2022-10-13T00:26:17.402Z,14.06
2022-10-13T00:28:48.465Z,13.43
2022-10-13T00:31:20.839Z,13.95
2022-10-13T00:33:47.367Z,14.10
2022-10-13T00:36:13.757Z,14.21
2022-10-13T00:38:40.140Z,14.11
2022-10-13T00:41:07.150Z,14.61
2022-10-13T00:43:52.073Z,14.65
2022-10-13T00:46:18.517Z,14.46
2022-10-13T00:48:46.023Z,14.72
2022-10-13T00:51:14.797Z,14.24
2022-10-13T00:53:42.143Z,14.57
2022-10-13T00:56:11.431Z,14.75
2022-10-13T00:58:40.512Z,14.67
2022-10-13T01:01:07.639Z,14.77
2022-10-13T01:03:35.089Z,14.78
2022-10-13T01:06:04.793Z,14.64
2022-10-13T01:08:32.114Z,14.88
2022-10-13T01:11:12.344Z,14.90
2022-10-13T01:13:49.727Z,15.02
2022-10-13T01:16:26.425Z,15.05
2022-10-13T01:19:16.676Z,14.78
2022-10-13T01:22:09.406Z,14.87
2022-10-13T01:24:44.783Z,15.01
2022-10-13T01:27:22.709Z,14.99
2022-10-13T01:30:07.841Z,15.01
2022-10-13T01:33:06.000Z,14.77
2022-10-13T01:35:58.089Z,14.98
2022-10-13T01:38:37.014Z,14.57
2022-10-13T01:41:28.571Z,14.30
2022-10-13T01:44:08.441Z,14.21
2022-10-13T01:46:37.899Z,14.92
2022-10-13T01:49:12.072Z,15.04
2022-10-13T01:51:39.613Z,14.85
2022-10-13T01:54:06.148Z,14.90
2022-10-13T01:56:32.626Z,14.83
2022-10-13T01:59:02.889Z,14.65
2022-10-13T02:01:56.261Z,14.87
2022-10-13T02:04:48.858Z,14.95
2022-10-13T02:07:21.225Z,14.91
2022-10-13T02:09:57.195Z,14.88
2022-10-13T02:12:34.530Z,14.89
2022-10-13T02:15:02.355Z,14.75
2022-10-13T02:17:30.821Z,14.79
2022-10-13T02:19:57.962Z,14.75
2022-10-13T02:22:31.063Z,14.42
2022-10-13T02:24:57.594Z,14.80
2022-10-13T02:27:24.164Z,14.65
2022-10-13T02:29:52.822Z,14.72
2022-10-13T02:32:19.723Z,14.83
2022-10-13T02:34:46.334Z,14.75
2022-10-13T02:37:12.728Z,14.27
2022-10-13T02:39:39.049Z,13.78
2022-10-13T02:42:05.799Z,14.83
2022-10-13T02:44:32.503Z,14.72
2022-10-13T02:46:58.981Z,14.63
2022-10-13T02:49:25.349Z,14.90
2022-10-13T02:51:53.292Z,14.90
2022-10-13T02:54:19.845Z,14.88
2022-10-13T02:56:46.446Z,14.10
2022-10-13T02:59:12.884Z,14.61
2022-10-13T03:01:41.666Z,14.66
2022-10-13T03:04:08.855Z,14.67
2022-10-13T03:06:35.488Z,14.68
2022-10-13T03:09:02.844Z,14.45
2022-10-13T03:11:29.316Z,14.00
2022-10-13T03:13:55.780Z,13.98
2022-10-13T03:16:22.424Z,14.72
2022-10-13T03:18:48.785Z,14.10
2022-10-13T03:21:15.564Z,13.85
2022-10-13T03:23:41.969Z,14.80
2022-10-13T03:26:08.352Z,14.72
2022-10-13T03:28:34.845Z,14.30
2022-10-13T03:31:03.245Z,14.69
2022-10-13T03:33:29.859Z,14.74
2022-10-13T03:35:59.338Z,14.32
2022-10-13T03:38:25.911Z,14.57
2022-10-13T03:40:52.342Z,14.48
2022-10-13T03:43:18.728Z,14.10
2022-10-13T03:45:45.070Z,14.49
2022-10-13T03:48:11.440Z,13.92
2022-10-13T03:50:37.782Z,14.41
2022-10-13T03:53:04.091Z,13.61
2022-10-13T03:55:30.433Z,14.06
2022-10-13T03:57:56.757Z,14.43
2022-10-13T04:00:23.247Z,14.01
2022-10-13T04:02:49.792Z,14.29
2022-10-13T04:05:16.635Z,14.51
2022-10-13T04:07:43.027Z,14.40
2022-10-13T04:10:11.489Z,14.00
2022-10-13T04:12:37.993Z,14.38
2022-10-13T04:15:04.709Z,14.40
2022-10-13T04:17:31.051Z,14.41
2022-10-13T04:19:57.462Z,14.45
2022-10-13T04:22:23.809Z,14.14
2022-10-13T04:24:50.330Z,13.86
2022-10-13T04:27:18.966Z,14.42
2022-10-13T04:29:45.385Z,14.20
2022-10-13T04:32:11.716Z,14.32
2022-10-13T04:34:38.076Z,13.97
2022-10-13T04:37:04.459Z,14.25
2022-10-13T04:39:30.855Z,14.34
2022-10-13T04:41:57.286Z,14.32
2022-10-13T04:44:23.752Z,13.99
2022-10-13T04:46:50.091Z,13.98
2022-10-13T04:49:17.191Z,14.10
2022-10-13T04:51:43.531Z,13.91
2022-10-13T04:54:10.135Z,14.45
2022-10-13T04:56:36.745Z,14.34
2022-10-13T04:59:05.703Z,14.44
2022-10-13T05:01:33.306Z,14.40
2022-10-13T05:04:01.559Z,14.48
2022-10-13T05:06:58.782Z,14.52
2022-10-13T05:09:27.110Z,14.43
2022-10-13T05:11:55.070Z,14.24
2022-10-13T05:14:22.131Z,14.44
2022-10-13T05:16:49.201Z,13.98
2022-10-13T05:19:15.642Z,14.41
2022-10-13T05:21:42.277Z,14.04
2022-10-13T05:24:13.519Z,14.43
2022-10-13T05:26:40.138Z,14.45
2022-10-13T05:29:06.462Z,14.31
2022-10-13T05:31:35.133Z,14.48
2022-10-13T05:34:01.877Z,14.48
2022-10-13T05:36:31.177Z,14.08
2022-10-13T05:39:00.262Z,14.45
2022-10-13T05:41:28.866Z,14.42
2022-10-13T05:43:58.973Z,14.36
2022-10-13T05:46:25.460Z,14.46
2022-10-13T05:48:52.050Z,14.51
2022-10-13T05:51:27.765Z,14.49
2022-10-13T05:54:09.535Z,14.49
2022-10-13T05:56:44.766Z,14.31
2022-10-13T05:59:15.639Z,14.52
2022-10-13T06:01:42.389Z,14.55
2022-10-13T06:04:17.345Z,14.26
2022-10-13T06:06:44.078Z,14.57
2022-10-13T06:09:10.615Z,14.54
2022-10-13T06:11:36.923Z,14.19
2022-10-13T06:14:03.311Z,14.20
2022-10-13T06:16:29.686Z,14.31
2022-10-13T06:18:56.115Z,14.40
2022-10-13T06:21:22.480Z,14.49
2022-10-13T06:23:48.805Z,14.68
2022-10-13T06:26:15.187Z,14.57
2022-10-13T06:28:43.330Z,14.41
2022-10-13T06:31:11.544Z,14.43
2022-10-13T06:33:38.053Z,14.43
2022-10-13T06:36:06.006Z,14.59
2022-10-13T06:38:33.372Z,14.80
2022-10-13T06:41:04.489Z,14.82
2022-10-13T06:43:38.719Z,14.56
2022-10-13T06:46:06.851Z,14.10
2022-10-13T06:48:33.326Z,14.81
2022-10-13T06:51:08.372Z,14.94
2022-10-13T06:53:35.283Z,15.08
2022-10-13T06:56:04.332Z,15.00
2022-10-13T06:58:30.814Z,15.10
2022-10-13T07:00:57.286Z,15.09
2022-10-13T07:03:24.998Z,14.98
2022-10-13T07:05:51.424Z,15.31
2022-10-13T07:08:17.753Z,15.33
2022-10-13T07:10:44.063Z,15.32
2022-10-13T07:13:10.585Z,15.43
2022-10-13T07:15:39.111Z,15.61
2022-10-13T07:18:05.927Z,15.61
2022-10-13T07:20:32.291Z,15.44
2022-10-13T07:22:58.677Z,15.49
2022-10-13T07:25:25.256Z,15.69
2022-10-13T07:27:51.605Z,15.75
2022-10-13T07:30:18.469Z,15.65
2022-10-13T07:32:44.817Z,15.80
2022-10-13T07:35:12.090Z,15.91
2022-10-13T07:37:38.891Z,16.02
2022-10-13T07:40:06.599Z,15.87
2022-10-13T07:42:33.446Z,16.02
2022-10-13T07:44:59.802Z,16.16
2022-10-13T07:47:26.211Z,15.89
2022-10-13T07:49:54.518Z,16.10
2022-10-13T07:52:21.269Z,15.95
2022-10-13T07:54:50.947Z,16.20
2022-10-13T07:57:17.733Z,16.08
2022-10-13T07:59:44.094Z,16.23
2022-10-13T08:02:10.429Z,16.25
2022-10-13T08:04:37.368Z,16.30
2022-10-13T08:07:05.567Z,16.33
2022-10-13T08:09:31.908Z,16.16
2022-10-13T08:12:00.829Z,16.27
2022-10-13T08:14:29.104Z,16.03
2022-10-13T08:16:55.864Z,15.97
2022-10-13T08:19:22.510Z,16.38
2022-10-13T08:21:58.593Z,16.15
2022-10-13T08:24:27.268Z,16.09
2022-10-13T08:26:53.771Z,16.07
2022-10-13T08:29:23.017Z,16.45
2022-10-13T08:31:53.656Z,16.43
2022-10-13T08:34:20.870Z,16.84
2022-10-13T08:36:47.503Z,16.78
2022-10-13T08:39:14.302Z,16.77
2022-10-13T08:41:46.648Z,16.97
2022-10-13T08:47:09.622Z,16.96
2022-10-13T08:49:36.137Z,16.75
2022-10-13T08:52:05.563Z,16.82
2022-10-13T08:54:33.460Z,16.84
2022-10-13T08:59:27.262Z,17.13
2022-10-13T09:01:55.271Z,17.10
2022-10-13T09:04:32.970Z,17.22
2022-10-13T09:07:10.426Z,17.16
2022-10-13T09:09:38.520Z,17.14
2022-10-13T09:12:06.056Z,17.15
2022-10-13T09:14:37.694Z,17.02
2022-10-13T09:17:26.394Z,17.23
2022-10-13T09:20:02.756Z,17.00
2022-10-13T09:22:29.049Z,17.27
2022-10-13T09:25:07.436Z,17.28
2022-10-13T09:27:55.027Z,17.15
2022-10-13T09:30:32.827Z,17.26
2022-10-13T09:33:08.777Z,17.30
2022-10-13T09:35:39.557Z,16.94
2022-10-13T09:38:06.849Z,17.25
2022-10-13T09:40:33.889Z,17.12
2022-10-13T09:43:02.170Z,17.27
2022-10-13T09:45:30.882Z,17.43
2022-10-13T09:48:07.436Z,17.41
2022-10-13T09:50:35.506Z,17.62
2022-10-13T09:53:20.432Z,17.70
2022-10-13T09:55:49.156Z,17.81
2022-10-13T09:58:25.047Z,17.75
2022-10-13T10:00:52.946Z,18.05
2022-10-13T10:03:35.356Z,18.26
2022-10-13T10:06:05.810Z,18.07
2022-10-13T10:09:02.301Z,18.16
2022-10-13T10:11:47.609Z,18.20
2022-10-13T10:14:28.815Z,18.69
2022-10-13T10:17:12.116Z,18.79
2022-10-13T10:19:47.866Z,18.91
2022-10-13T10:22:35.674Z,18.67
2022-10-13T10:25:10.081Z,19.03
2022-10-13T10:27:44.337Z,18.85
2022-10-13T10:30:23.783Z,18.78
2022-10-13T10:33:03.340Z,18.69
2022-10-13T10:35:55.685Z,18.51
2022-10-13T10:38:40.730Z,18.55
2022-10-13T10:41:23.375Z,18.50
2022-10-13T10:43:55.353Z,18.13
2022-10-13T10:46:26.035Z,18.23
2022-10-13T10:48:57.277Z,18.33
2022-10-13T10:51:31.031Z,18.17
2022-10-13T10:54:49.078Z,18.36
2022-10-13T10:57:32.971Z,18.27
2022-10-13T11:00:19.449Z,18.20
2022-10-13T11:03:04.875Z,18.28
2022-10-13T11:05:59.790Z,18.17
2022-10-13T11:08:40.877Z,17.91
2022-10-13T11:11:26.564Z,17.98
2022-10-13T11:13:58.143Z,17.69
2022-10-13T11:16:30.633Z,17.63
2022-10-13T11:19:05.372Z,17.67
2022-10-13T11:21:53.608Z,17.62
2022-10-13T11:24:49.418Z,17.62
2022-10-13T11:27:15.713Z,17.58
2022-10-13T11:29:54.868Z,17.58
2022-10-13T11:32:36.414Z,17.69
2022-10-13T11:35:05.789Z,17.81
2022-10-13T11:37:35.152Z,17.95
2022-10-13T11:40:20.190Z,17.87
2022-10-13T11:42:58.290Z,18.08
2022-10-13T11:45:50.760Z,18.13
2022-10-13T11:48:17.375Z,18.19
2022-10-13T11:51:10.334Z,18.04
2022-10-13T11:53:53.197Z,17.97
2022-10-13T11:56:32.784Z,18.38
2022-10-13T11:58:59.099Z,18.32
2022-10-13T12:01:25.479Z,18.29
2022-10-13T12:03:51.872Z,18.46
2022-10-13T12:06:34.757Z,18.62
2022-10-13T12:09:04.257Z,18.67
2022-10-13T12:11:33.673Z,18.50
2022-10-13T12:14:00.230Z,18.37
2022-10-13T12:16:27.832Z,18.47
2022-10-13T12:19:07.468Z,18.70
2022-10-13T12:21:34.146Z,18.65
2022-10-13T12:24:09.134Z,18.82
2022-10-13T12:26:35.615Z,18.51
2022-10-13T12:29:05.047Z,18.49
2022-10-13T12:31:40.917Z,18.65
2022-10-13T12:34:27.570Z,18.60
2022-10-13T12:36:58.178Z,18.80
2022-10-13T12:39:26.817Z,18.77
2022-10-13T12:41:54.681Z,18.98
2022-10-13T12:44:24.874Z,18.81
2022-10-13T12:46:55.436Z,18.94
2022-10-13T12:49:35.695Z,18.97
2022-10-13T12:52:14.268Z,19.03
2022-10-13T12:54:48.588Z,18.88
2022-10-13T12:57:19.720Z,19.05
2022-10-13T12:59:46.522Z,18.87
2022-10-13T13:02:32.516Z,18.87
2022-10-13T13:04:59.527Z,18.74
2022-10-13T13:07:39.500Z,18.67
2022-10-13T13:10:08.883Z,18.92
2022-10-13T13:12:36.951Z,18.73
2022-10-13T13:15:20.775Z,18.88
2022-10-13T13:18:02.776Z,18.58
2022-10-13T13:20:34.667Z,18.81
2022-10-13T13:23:01.910Z,18.44
2022-10-13T13:25:28.414Z,18.64
2022-10-13T13:27:54.832Z,18.63
2022-10-13T13:30:23.215Z,18.75
2022-10-13T13:32:50.145Z,18.70
2022-10-13T13:35:16.911Z,18.46
2022-10-13T13:37:48.025Z,18.42
2022-10-13T13:40:34.539Z,18.38
2022-10-13T13:43:00.942Z,18.19
2022-10-13T13:45:27.309Z,18.25
2022-10-13T13:47:57.988Z,18.04
2022-10-13T13:50:32.128Z,18.01
2022-10-13T13:52:59.069Z,18.21
2022-10-13T13:55:26.901Z,18.36
2022-10-13T13:57:53.433Z,18.43
2022-10-13T14:00:20.329Z,18.16
2022-10-13T14:02:47.066Z,18.27
2022-10-13T14:05:13.513Z,18.27
2022-10-13T14:07:40.802Z,18.41
2022-10-13T14:10:08.502Z,18.38
2022-10-13T14:12:35.551Z,18.46
2022-10-13T14:15:01.879Z,18.25
2022-10-13T14:17:28.593Z,18.54
2022-10-13T14:19:55.143Z,18.54
2022-10-13T14:22:22.530Z,18.62
2022-10-13T14:24:49.363Z,18.51
2022-10-13T14:27:15.794Z,18.54
2022-10-13T14:29:42.130Z,18.61
2022-10-13T14:32:08.544Z,18.50
2022-10-13T14:34:34.869Z,18.39
2022-10-13T14:37:01.270Z,18.43
2022-10-13T14:39:27.814Z,18.11
2022-10-13T14:41:54.726Z,18.25
2022-10-13T14:44:21.043Z,18.33
2022-10-13T14:46:47.396Z,18.24
2022-10-13T14:49:13.880Z,18.34
2022-10-13T14:51:40.223Z,18.30
2022-10-13T14:54:06.918Z,18.50
2022-10-13T14:56:34.050Z,18.47
2022-10-13T14:59:02.442Z,18.46
2022-10-13T15:01:28.897Z,18.21
2022-10-13T15:03:55.390Z,18.35
2022-10-13T15:06:24.687Z,18.42
2022-10-13T15:08:51.811Z,18.40
2022-10-13T15:11:19.500Z,18.37
2022-10-13T15:13:46.328Z,18.34
2022-10-13T15:16:22.921Z,18.31
2022-10-13T15:18:49.806Z,18.23
2022-10-13T15:21:17.099Z,17.88
2022-10-13T15:23:44.061Z,17.85
2022-10-13T15:26:12.382Z,17.67
2022-10-13T15:28:46.483Z,17.53
2022-10-13T15:31:15.521Z,17.63
2022-10-13T15:33:43.658Z,17.53
2022-10-13T15:36:09.957Z,17.44
2022-10-13T15:38:36.333Z,17.19
2022-10-13T15:41:05.209Z,17.32
2022-10-13T15:43:32.451Z,17.18
2022-10-13T15:46:04.700Z,17.06
2022-10-13T15:48:32.408Z,17.13
2022-10-13T15:50:59.051Z,16.67
2022-10-13T15:53:25.814Z,17.07
2022-10-13T15:55:52.235Z,16.75
2022-10-13T15:58:18.843Z,17.08
2022-10-13T16:00:45.332Z,17.03
2022-10-13T16:03:19.146Z,17.31
2022-10-13T16:05:46.642Z,17.22
2022-10-13T16:08:14.243Z,17.20
2022-10-13T16:10:43.884Z,17.18
2022-10-13T16:13:14.335Z,17.48
2022-10-13T16:15:41.679Z,17.23
2022-10-13T16:18:08.123Z,17.26
2022-10-13T16:20:37.594Z,17.41
2022-10-13T16:23:04.733Z,17.45
2022-10-13T16:25:31.942Z,17.51
2022-10-13T16:27:59.337Z,17.34
2022-10-13T16:30:27.667Z,17.39
2022-10-13T16:32:54.004Z,17.33
2022-10-13T16:35:20.342Z,17.40
2022-10-13T16:37:46.666Z,17.33
2022-10-13T16:40:13.013Z,17.13
2022-10-13T16:42:39.392Z,17.39
2022-10-13T16:45:06.454Z,17.33
2022-10-13T16:47:32.781Z,17.42
2022-10-13T16:49:59.093Z,17.47
2022-10-13T16:52:25.469Z,17.23
2022-10-13T16:54:51.907Z,17.18
2022-10-13T16:57:18.581Z,16.89
2022-10-13T16:59:45.037Z,17.43
2022-10-13T17:02:15.382Z,17.35
2022-10-13T17:04:42.183Z,17.34
2022-10-13T17:07:08.507Z,17.55
2022-10-13T17:09:34.980Z,17.41
2022-10-13T17:12:02.115Z,17.42
2022-10-13T17:14:28.485Z,17.39
2022-10-13T17:16:57.770Z,17.45
2022-10-13T17:19:24.385Z,17.40
2022-10-13T17:21:50.704Z,17.46
2022-10-13T17:24:17.275Z,17.31
2022-10-13T17:26:43.603Z,17.31
2022-10-13T17:29:10.113Z,17.30
2022-10-13T17:31:36.560Z,17.41
2022-10-13T17:34:02.873Z,17.37
2022-10-13T17:36:34.310Z,17.47
2022-10-13T17:39:06.507Z,17.45
2022-10-13T17:41:33.385Z,17.28
2022-10-13T17:43:59.811Z,16.89
2022-10-13T17:46:38.359Z,16.84
2022-10-13T17:49:07.889Z,17.31
2022-10-13T17:51:34.272Z,17.27
2022-10-13T17:54:00.719Z,17.34
2022-10-13T17:56:27.657Z,17.04
2022-10-13T17:58:54.500Z,16.81
2022-10-13T18:01:23.831Z,17.22
2022-10-13T18:03:52.550Z,17.34
2022-10-13T18:06:19.887Z,17.10
2022-10-13T18:08:46.268Z,17.09
2022-10-13T18:11:15.857Z,17.39
2022-10-13T18:13:43.828Z,17.26
2022-10-13T18:16:12.855Z,17.34
2022-10-13T18:18:39.292Z,17.07
2022-10-13T18:21:07.622Z,17.28
2022-10-13T18:23:35.875Z,16.97
2022-10-13T18:26:12.062Z,17.19
2022-10-13T18:28:45.337Z,16.90
2022-10-13T18:31:24.750Z,16.95
2022-10-13T18:33:52.024Z,17.06
2022-10-13T18:36:28.177Z,16.37
2022-10-13T18:38:56.610Z,16.51
2022-10-13T18:41:24.771Z,16.26
2022-10-13T18:43:52.755Z,16.60
2022-10-13T18:46:19.112Z,16.00
2022-10-13T18:48:45.636Z,16.49
2022-10-13T18:51:17.425Z,16.70
2022-10-13T18:53:46.344Z,16.65
2022-10-13T18:56:14.012Z,16.21
2022-10-13T18:58:40.490Z,16.40
2022-10-13T19:01:19.878Z,16.21
2022-10-13T19:03:53.114Z,16.58
2022-10-13T19:06:30.110Z,16.37
2022-10-13T19:09:08.111Z,16.71
2022-10-13T19:11:35.412Z,16.64
2022-10-13T19:14:02.473Z,16.40
2022-10-13T19:16:31.140Z,16.61
2022-10-13T19:18:58.117Z,16.62
2022-10-13T19:21:25.286Z,15.84
2022-10-13T19:23:51.880Z,16.66
2022-10-13T19:26:22.344Z,16.72
2022-10-13T19:28:48.777Z,16.03
2022-10-13T19:31:18.326Z,16.55
2022-10-13T19:33:47.055Z,16.59
2022-10-13T19:36:44.401Z,16.63
2022-10-13T19:39:18.040Z,16.69
2022-10-13T19:41:45.929Z,16.43
2022-10-13T19:44:13.362Z,16.68
2022-10-13T19:46:42.301Z,16.71
2022-10-13T19:49:09.204Z,16.56
2022-10-13T19:51:36.375Z,16.63
2022-10-13T19:54:03.147Z,16.51
2022-10-13T19:56:31.572Z,16.54
2022-10-13T19:58:58.656Z,16.67
2022-10-13T20:01:25.183Z,16.19
2022-10-13T20:03:52.056Z,16.35
2022-10-13T20:06:20.142Z,16.55
2022-10-13T20:08:47.754Z,16.47
2022-10-13T20:11:23.073Z,16.53
2022-10-13T20:13:50.415Z,15.73
2022-10-13T20:16:19.197Z,16.42
2022-10-13T20:18:45.637Z,16.48
2022-10-13T20:21:13.351Z,16.00
2022-10-13T20:23:40.908Z,16.41
2022-10-13T20:26:10.785Z,16.46
2022-10-13T20:28:43.362Z,16.55
2022-10-13T20:31:12.598Z,16.25
2022-10-13T20:33:39.112Z,16.51
2022-10-13T20:36:08.686Z,16.51
2022-10-13T20:38:35.961Z,16.37
2022-10-13T20:41:10.061Z,16.52
2022-10-13T20:43:36.997Z,16.31
2022-10-13T20:46:06.019Z,16.39
2022-10-13T20:48:57.870Z,16.53
2022-10-13T20:51:22.643Z,16.51
2022-10-13T20:53:49.697Z,15.90
2022-10-13T20:56:24.657Z,16.25
2022-10-13T20:58:51.848Z,16.21
2022-10-13T21:01:20.702Z,16.39
2022-10-13T21:03:51.465Z,16.22
2022-10-13T21:06:17.907Z,16.26
2022-10-13T21:08:45.328Z,16.31
2022-10-13T21:11:13.575Z,16.30
2022-10-13T21:13:41.301Z,16.32
2022-10-13T21:16:10.391Z,16.63
2022-10-13T21:18:37.085Z,16.63
2022-10-13T21:21:08.096Z,16.43
2022-10-13T21:23:34.626Z,16.47
2022-10-13T21:26:02.507Z,16.66
2022-10-13T21:28:29.857Z,16.37
2022-10-13T21:31:04.498Z,16.55
2022-10-13T21:33:33.413Z,16.64
2022-10-13T21:36:05.069Z,16.25
2022-10-13T21:38:31.414Z,16.42
2022-10-13T21:40:57.771Z,16.56
2022-10-13T21:43:24.104Z,16.59
2022-10-13T21:45:50.478Z,16.19
2022-10-13T21:48:16.863Z,16.65
2022-10-13T21:50:43.183Z,16.46
2022-10-13T21:53:09.505Z,16.00
2022-10-13T21:55:35.919Z,16.62
2022-10-13T21:58:05.130Z,16.75
2022-10-13T22:00:33.315Z,16.45
2022-10-13T22:02:59.894Z,16.58
2022-10-13T22:05:26.287Z,16.54
2022-10-13T22:07:53.333Z,16.76
2022-10-13T22:10:19.809Z,16.48
2022-10-13T22:12:46.272Z,16.27
2022-10-13T22:15:12.632Z,16.16
2022-10-13T22:17:39.075Z,16.64
2022-10-13T22:20:05.882Z,16.57
2022-10-13T22:22:32.229Z,16.24
2022-10-13T22:24:58.567Z,16.49
2022-10-13T22:27:24.935Z,16.57
2022-10-13T22:29:52.945Z,16.39
2022-10-13T22:32:19.299Z,15.89
2022-10-13T22:34:45.633Z,16.45
2022-10-13T22:37:11.953Z,16.36
2022-10-13T22:39:38.358Z,16.55
2022-10-13T22:42:04.716Z,16.63
2022-10-13T22:44:31.027Z,16.10
2022-10-13T22:46:57.357Z,16.65
2022-10-13T22:49:23.767Z,16.59
2022-10-13T22:51:50.092Z,16.37
2022-10-13T22:54:16.449Z,16.30
2022-10-13T22:56:43.073Z,16.60
2022-10-13T22:59:11.075Z,16.68
2022-10-13T23:01:37.563Z,16.61
2022-10-13T23:04:04.276Z,16.18
2022-10-13T23:06:33.537Z,16.70
2022-10-13T23:09:05.925Z,16.23
2022-10-13T23:11:33.266Z,16.53
2022-10-13T23:14:01.361Z,16.62
2022-10-13T23:16:27.947Z,16.68
2022-10-13T23:18:54.687Z,15.96
2022-10-13T23:21:23.271Z,16.72
2022-10-13T23:23:57.586Z,16.64
2022-10-13T23:26:24.707Z,16.75
2022-10-13T23:28:51.228Z,16.53
2022-10-13T23:31:18.511Z,16.60
2022-10-13T23:33:45.506Z,16.43
2022-10-13T23:36:20.899Z,16.54
2022-10-13T23:38:47.583Z,16.78
2022-10-13T23:41:15.995Z,16.82
2022-10-13T23:43:43.050Z,16.78
2022-10-13T23:46:10.629Z,16.60
2022-10-13T23:48:38.073Z,16.76
2022-10-13T23:51:13.893Z,16.75
2022-10-13T23:53:41.098Z,16.77
2022-10-13T23:56:08.741Z,16.14
2022-10-13T23:58:37.216Z,16.79
